Station: Moomba Airport

  Atmospheric Gas Attenuation - ITU Rec 676-11   --------------- db/100km ---------------
Date Time Temp RH % AH g/m3 Dew Point Wind Direction Speed kph Gust kph Barometer mB Rainfall Since 9am 24GHz 47GHz 76GHz 122GHz 134GHz 241GHz
27 12:10 20.4 23 4.07 -1.4 20 26 1023.7 0 9.8 18.2 21.7 56.1 40.6 136.1
27 12:00 20 25 4.32 -0.6 19 35 1023.8 0 10.3 18.6 22.6 58.5 43.4 145.9
27 11:50 19.9 25 4.29 -0.7 11 15 1024 0 10.3 18.6 22.6 58.3 43.1 145.0
27 11:40 19.8 25 4.27 -0.8 22 26 1024.2 0 10.2 18.6 22.5 58.2 43.0 144.5
27 11:30 19.4 25 4.17 -1.1 22 30 1024.3 0 10.0 18.5 22.3 57.7 42.1 141.5
27 11:20 19.4 24 4 -1.7 19 22 1024.4 0 9.7 18.3 21.8 56.3 40.4 135.3
27 11:10 19 26 4.24 -0.9 15 17 1024.6 0 10.2 18.7 22.7 58.6 43.1 144.8
27 11:00 19.1 25 4.1 -1.4 20 28 1024.7 0 9.9 18.5 22.2 57.3 41.6 139.5
27 10:50 19.4 26 4.34 -0.6 22 26 1024.8 0 10.4 18.8 22.9 59.1 43.9 147.8
27 10:40 18.6 27 4.3 -0.7 20 28 1025 0 10.3 18.9 23.0 59.4 43.9 147.8
27 10:30 18.7 27 4.32 -0.7 17 24 1025.1 0 10.4 18.9 23.0 59.5 44.1 148.3
27 10:20 18.6 28 4.46 -0.2 20 24 1025.2 0 10.7 19.1 23.5 60.8 45.6 153.8
27 10:10 18.7 28 4.48 -0.2 19 22 1025.3 0 10.7 19.1 23.5 60.9 45.8 154.3
27 10:00 18.3 28 4.38 -0.5 17 24 1025.3 0 10.5 19.1 23.3 60.3 45.0 151.3
27 09:50 17.9 28 4.27 -0.8 15 17 1025.5 0 10.3 19.0 23.1 59.7 44.0 147.9
27 09:40 18 29 4.45 -0.3 19 24 1025.6 0 10.7 19.2 23.7 61.2 45.9 154.6
27 09:30 17.6 32 4.8 0.7 22 28 1025.7 0 11.4 19.8 24.9 64.5 49.9 168.7
27 09:20 17.5 33 4.92 1.1 22 26 1025.7 0 11.7 20.0 25.3 65.7 51.3 173.5
27 09:10 17.2 33 4.83 0.8 22 24 1025.8 0 11.5 19.9 25.1 65.1 50.5 170.7
27 09:00 17 35 5.06 1.4 22 26 1025.8 0 12.0 20.3 26.0 67.3 53.2 180.0
27 08:50 16.4 35 4.88 0.9 22 26 1025.7 0 11.6 20.1 25.5 66.2 51.5 174.3
27 08:40 16.2 36 4.96 1.1 22 24 1025.8 0 11.8 20.3 25.9 67.1 52.6 177.9
27 08:30 15.7 37 4.95 1.1 20 28 1025.9 0 11.8 20.4 26.0 67.4 52.8 178.6
27 08:20 15.5 39 5.16 1.6 19 22 1025.9 0 12.2 20.7 26.8 69.5 55.3 187.4
27 08:10 14.7 40 5.04 1.3 20 22 1025.7 0 12.0 20.7 26.6 69.1 54.5 184.3
27 08:00 14.2 42 5.13 1.5 17 20 1025.7 0 12.2 21.0 27.1 70.3 55.8 189.1
27 07:50 13.5 44 5.15 1.5 19 19 1025.7 0 12.3 21.2 27.4 71.1 56.6 191.6
27 07:40 12.7 45 5.01 1.1 17 19 1025.5 0 12.0 21.1 27.2 70.5 55.5 187.6
27 07:30 12 46 4.9 0.8 13 19 1025.5 0 11.8 21.1 27.0 70.0 54.7 184.7
27 07:20 11.6 47 4.89 0.7 13 17 1025.3 0 11.8 21.2 27.1 70.3 54.8 185.1
27 07:10 10.9 47 4.68 0 13 17 1025.1 0 11.4 21.0 26.6 68.8 52.8 177.9
27 07:00 10.4 48 4.63 -0.1 13 15 1025 0 11.3 21.1 26.5 68.8 52.5 176.9
27 06:50 9.9 49 4.58 -0.3 13 13 1024.9 0 11.2 21.1 26.5 68.7 52.2 175.9
27 06:40 9.4 50 4.52 -0.5 11 13 1024.8 0 11.1 21.1 26.5 68.6 51.8 174.4
27 06:30 9.1 51 4.53 -0.5 9 11 1024.7 0 11.1 21.2 26.6 68.9 52.1 175.5
27 06:20 8.3 54 4.55 -0.4 9 9 1024.7 0 11.2 21.4 26.9 69.8 52.9 178.1
27 06:10 7.6 54 4.35 -1.1 7 9 1024.4 0 10.8 21.3 26.4 68.4 50.9 170.9
27 06:00 7.9 53 4.36 -1.1 9 11 1024.2 0 10.8 21.2 26.3 68.2 50.8 170.7
27 05:50 8.4 51 4.33 -1.1 11 11 1024 0 10.7 21.1 26.1 67.5 50.2 168.4
27 05:40 9.6 48 4.4 -0.9 13 15 1023.9 0 10.8 20.9 25.9 67.2 50.2 168.8
27 05:30 9.4 50 4.52 -0.5 11 15 1023.8 0 11.1 21.1 26.4 68.5 51.8 174.2
27 05:10 7.9 54 4.44 -0.8 9 11 1023.5 0 10.9 21.3 26.6 69.0 51.8 174.0
27 04:40 8 52 4.3 -1.2 7 9 1023 0 10.6 21.1 26.0 67.5 50.0 167.8
27 04:30 8.2 50 4.19 -1.6 7 11 1022.9 0 10.4 20.9 25.6 66.2 48.5 162.7
27 04:20 8.7 48 4.15 -1.7 7 9 1022.9 0 10.3 20.7 25.3 65.4 47.8 160.0
27 04:10 9.8 46 4.27 -1.3 11 11 1022.9 0 10.5 20.6 25.4 65.7 48.5 162.8
27 04:00 9.7 46 4.24 -1.3 9 13 1022.8 0 10.5 20.6 25.3 65.5 48.2 161.8
27 03:50 9.4 47 4.25 -1.3 7 7 1022.9 0 10.5 20.7 25.4 65.8 48.5 162.8
27 03:40 8.9 48 4.21 -1.5 6 7 1022.8 0 10.4 20.7 25.4 65.8 48.4 162.1
27 03:30 9.1 48 4.26 -1.3 6 11 1022.8 0 10.5 20.8 25.5 66.1 48.8 163.8
27 03:20 9 48 4.23 -1.4 6 7 1022.7 0 10.5 20.7 25.5 65.9 48.5 162.7
27 03:10 8.9 48 4.21 -1.5 7 7 1022.7 0 10.4 20.7 25.4 65.8 48.3 162.1
27 03:00 8.8 48 4.18 -1.6 6 7 1022.8 0 10.4 20.7 25.3 65.6 48.1 161.1
27 02:50 9 46 4.06 -2 6 6 1022.9 0 10.1 20.5 24.9 64.3 46.5 155.7
27 02:40 9.8 44 4.08 -1.9 7 7 1022.9 0 10.1 20.4 24.7 63.9 46.3 155.0
27 02:30 10 44 4.14 -1.7 7 9 1022.8 0 10.2 20.4 24.8 64.3 46.9 157.0
27 02:20 10.3 42 4.02 -2 6 6 1022.8 0 10.0 20.2 24.3 62.9 45.3 151.6
27 02:10 10.7 41 4.03 -2 9 15 1022.7 0 10.0 20.1 24.2 62.7 45.2 151.2
27 02:00 10.9 40 3.98 -2.1 9 13 1022.7 0 9.9 20.0 24.0 62.1 44.5 148.8
27 01:50 11.2 39 3.95 -2.2 9 9 1022.7 0 9.8 19.9 23.8 61.6 44.0 147.1
27 01:40 11.6 38 3.95 -2.2 13 17 1022.6 0 9.8 19.8 23.7 61.2 43.8 146.4
27 01:30 11.2 39 3.95 -2.2 11 17 1022.6 0 9.8 19.9 23.8 61.6 44.0 147.1
27 01:20 11.4 38 3.9 -2.4 13 13 1022.5 0 9.7 19.7 23.6 60.9 43.3 144.7
27 01:10 11.8 37 3.89 -2.4 15 17 1022.5 0 9.7 19.6 23.4 60.5 43.0 143.6
27 01:00 11.7 38 3.98 -2.1 13 20 1022.6 0 9.9 19.8 23.8 61.4 44.1 147.4
27 00:50 11.5 39 4.03 -2 13 15 1022.6 0 10.0 19.9 24.0 62.1 44.7 149.7
27 00:40 11.2 40 4.06 -1.9 11 13 1022.6 0 10.0 20.0 24.2 62.6 45.3 151.5
27 00:30 11.2 40 4.06 -1.9 13 15 1022.7 0 10.0 20.0 24.2 62.6 45.3 151.5
27 00:20 11.2 41 4.16 -1.5 13 15 1022.8 0 10.3 20.2 24.6 63.5 46.4 155.6
27 00:10 10 45 4.23 -1.4 9 13 1022.9 0 10.4 20.5 25.2 65.1 47.9 160.8
27 00:00 10.1 45 4.26 -1.3 7 9 1023.1 0 10.5 20.6 25.2 65.4 48.2 161.8
26 23:50 10.3 45 4.31 -1.1 7 9 1023.2 0 10.6 20.6 25.4 65.7 48.7 163.5
26 23:40 9.9 45 4.2 -1.5 0 0 1023.2 0 10.4 20.5 25.1 64.9 47.7 159.8
26 23:30 10.2 44 4.19 -1.5 0 0 1023.1 0 10.3 20.4 25.0 64.6 47.4 158.8
26 23:20 10.3 44 4.21 -1.4 0 0 1023.1 0 10.4 20.4 25.0 64.7 47.5 159.4
26 23:10 10.5 44 4.27 -1.2 0 0 1023.1 0 10.5 20.5 25.2 65.1 48.1 161.5
26 23:00 10.7 43 4.22 -1.4 0 0 1023.1 0 10.4 20.4 24.9 64.5 47.4 159.0
26 22:50 10.9 43 4.28 -1.2 0 0 1023 0 10.5 20.4 25.1 64.9 48.0 161.1
26 22:40 11 42 4.2 -1.4 0 0 1022.9 0 10.3 20.3 24.8 64.1 47.0 157.6
26 22:30 11.3 41 4.18 -1.5 0 0 1022.9 0 10.3 20.2 24.6 63.6 46.6 156.2
26 22:20 11.5 40 4.13 -1.6 0 0 1022.9 0 10.2 20.1 24.4 63.0 45.9 153.8
26 22:10 12.2 36 3.89 -2.4 6 7 1022.9 0 9.7 19.6 23.3 60.3 42.8 143.0
26 22:00 12.5 36 3.96 -2.1 6 11 1023 0 9.8 19.6 23.5 60.7 43.4 145.2
26 21:50 12.1 36 3.86 -2.5 6 6 1023 0 9.6 19.6 23.3 60.1 42.5 142.0
26 21:40 12.2 36 3.89 -2.4 6 6 1023.1 0 9.7 19.6 23.3 60.3 42.8 143.0
26 21:30 12.8 34 3.81 -2.6 7 13 1023.2 0 9.5 19.4 22.9 59.1 41.6 138.8
26 21:20 13.6 33 3.88 -2.3 13 15 1023.1 0 9.6 19.3 22.9 59.2 42.0 140.2
26 21:10 13.1 33 3.77 -2.8 2 6 1023.1 0 9.4 19.2 22.7 58.6 41.0 136.7
26 21:00 13.7 32 3.79 -2.7 9 15 1023.2 0 9.4 19.1 22.6 58.3 40.9 136.5
26 20:50 13.6 33 3.88 -2.3 9 11 1023.1 0 9.6 19.3 22.9 59.2 42.0 140.2
26 20:40 14.4 30 3.71 -2.9 11 13 1023 0 9.2 18.9 22.1 57.1 39.7 132.3
26 20:30 14.6 30 3.75 -2.8 9 13 1023 0 9.3 18.9 22.2 57.3 40.0 133.5
26 20:20 14.8 30 3.8 -2.6 11 13 1022.9 0 9.4 18.9 22.3 57.6 40.5 135.1
26 20:10 14.5 30 3.73 -2.8 9 11 1022.8 0 9.3 18.9 22.2 57.2 39.9 132.9
26 20:00 14.9 29 3.7 -3 13 17 1022.7 0 9.2 18.8 22.0 56.7 39.3 131.1
26 19:50 15 29 3.72 -2.9 13 15 1022.6 0 9.2 18.8 22.0 56.7 39.5 131.7
26 19:40 15.1 29 3.74 -2.8 11 15 1022.5 0 9.3 18.8 22.0 56.8 39.7 132.3
26 19:30 15.4 28 3.68 -3 13 17 1022.5 0 9.1 18.6 21.8 56.1 38.9 129.6
26 19:20 15.4 28 3.68 -3 11 13 1022.4 0 9.1 18.6 21.8 56.1 38.9 129.5
26 19:10 15.5 28 3.7 -2.9 11 15 1022.2 0 9.2 18.6 21.8 56.2 39.0 130.1

Last Refresh: 27-Sep-2020 12:18:10

Most of the information presented on this site is sourced from the Bureau of Meteorology.  Copyright in all material sourced from the Bureau of Meteorology resides with the Commonwealth of Australia.